Maersk Lome — V7GQ8 — position and weather

sailwx.info

Track history (hours):
 
Tides and Currents Weather Stations Pressure Air Temp Water Temp Dewpoint Dewpoint Depression Visibility Wind Speed Wind Dir Waves Ship Positions

Maersk Lome

Last reported at 2018-May-21 13:18 UTC. Time now 2018-May-23 10:27 UTC.
Position S 38°15' E 144°55'.

Length 255 m; draft 12.3 m.

Type: Cargo ship. MMSI: 538005750.

Date/timePositionNaut miles runAvg speedWind from/ knotsBaromVisibWave heightAir tempDewpointWater temp
2018-May-21 13:18S 38°15' E 144°55'818.1
2018-May-21 12:51S 38°07' E 144°55'618.0
2018-May-21 12:30S 38°00' E 144°55'713.6
2018-May-21 12:00S 37°54' E 144°56'5 7.5
2018-May-21 11:24S 37°49' E 144°55'1 0.4
2018-May-21 10:08S 37°49' E 144°55'0 0.0
2018-May-21 08:44S 37°49' E 144°55'0 0.0
2018-May-20 17:59S 37°49' E 144°55'0 0.0
2018-May-20 17:30S 37°49' E 144°55'0 0.0
2018-May-20 16:56S 37°49' E 144°55'0 0.0
2018-May-20 16:17S 37°49' E 144°55'0 0.0
2018-May-20 15:59S 37°49' E 144°55'0 0.0
2018-May-20 15:30S 37°49' E 144°55'0 0.0
2018-May-20 05:18S 37°49' E 144°55'0 1.6
2018-May-20 05:00S 37°49' E 144°55'2 4.0
2018-May-20 04:29S 37°51' E 144°55'5 9.8
2018-May-20 04:00S 37°56' E 144°56'916.3
2018-May-20 03:26S 38°05' E 144°55'18411.3
2018-May-19 11:06S 38°24' E 148°48'717.2
2018-May-19 10:44S 38°21' E 148°55'417.6
2018-May-19 10:30S 38°18' E 148°59'1017.4
2018-May-19 09:54S 38°13' E 149°10'26316.5
2018-May-18 17:58S 34°11' E 151°19'816.4
2018-May-18 17:30S 34°04' E 151°19'812.7
2018-May-18 16:54S 33°59' E 151°12'1 2.0
2018-May-18 16:29S 33°58' E 151°13'0 0.0
2018-May-18 15:59S 33°58' E 151°13'0 0.0
2018-May-18 15:29S 33°58' E 151°13'0 0.0
2018-May-18 14:56S 33°58' E 151°13'0 0.0
2018-May-18 14:29S 33°58' E 151°13'0 0.0
2018-May-18 13:56S 33°58' E 151°13'0 0.0
2018-May-18 13:29S 33°58' E 151°13'0 0.0
2018-May-18 12:44S 33°58' E 151°13'0 0.0
2018-May-17 20:30S 33°58' E 151°13'0 0.0
2018-May-17 20:00S 33°58' E 151°13'0 0.0
2018-May-17 19:30S 33°58' E 151°13'0 0.0
2018-May-17 18:54S 33°58' E 151°13'0 0.0
2018-May-17 18:24S 33°58' E 151°13'0 0.0
2018-May-17 18:00S 33°58' E 151°13'0 0.0
2018-May-17 17:27S 33°58' E 151°13'0 0.0
2018-May-17 16:54S 33°58' E 151°13'0 0.0
2018-May-17 16:30S 33°58' E 151°13'0 0.0
2018-May-17 16:00S 33°58' E 151°13'0 0.0
2018-May-17 15:30S 33°58' E 151°13'0 0.0
2018-May-17 14:30S 33°58' E 151°13'0 0.0
2018-May-17 14:00S 33°58' E 151°13'0 0.0
2018-May-17 07:54S 33°58' E 151°13'1 0.2
2018-May-17 02:00S 33°59' E 151°13'5 9.8
2018-May-17 01:30S 34°01' E 151°18'4 7.3
2018-May-17 01:00S 33°59' E 151°22'4 8.3
2018-May-17 00:30S 33°56' E 151°25'5 9.4
2018-May-17 00:00S 33°52' E 151°29'611.8
2018-May-16 23:30S 33°47' E 151°33'917.2
2018-May-16 23:00S 33°40' E 151°39'917.0
2018-May-16 22:30S 33°33' E 151°45'2717.3
2018-May-16 20:58S 33°13' E 152°05'818.3
2018-May-16 20:30S 33°06' E 152°11'918.5
2018-May-16 20:00S 32°59' E 152°18'917.8
2018-May-16 19:30S 32°52' E 152°24'816.5
2018-May-16 19:00S 32°45' E 152°30'816.8
2018-May-16 18:30S 32°38' E 152°36'917.3
2018-May-16 18:00S 32°30' E 152°41'27217.6
2018-May-16 02:33S 28°05' E 153°47'116.8
2018-May-16 02:29S 28°04' E 153°47'816.6
2018-May-16 01:59S 27°56' E 153°46'816.7
2018-May-16 01:30S 27°48' E 153°46'816.7
2018-May-16 01:00S 27°39' E 153°45'816.5
2018-May-16 00:30S 27°31' E 153°45'2416.0
2018-May-15 23:02S 27°07' E 153°41'215.9
2018-May-15 22:54S 27°06' E 153°41'815.7
2018-May-15 22:24S 26°58' E 153°39'1515.8
2018-May-15 21:27S 26°49' E 153°25'816.9
2018-May-15 20:59S 26°45' E 153°18'610.4
2018-May-15 20:26S 26°43' E 153°12'613.1
2018-May-15 19:59S 26°49' E 153°11'612.6
2018-May-15 19:31S 26°55' E 153°11'816.4
2018-May-15 19:01S 27°02' E 153°15'815.8
2018-May-15 18:30S 27°08' E 153°21'815.9
2018-May-15 18:00S 27°15' E 153°17'714.9
2018-May-15 17:31S 27°20' E 153°11'2 3.4
2018-May-15 17:01S 27°22' E 153°11'0 0.0
2018-May-15 16:31S 27°22' E 153°11'0 0.0
2018-May-15 15:58S 27°22' E 153°11'0 0.0
2018-May-15 15:31S 27°22' E 153°11'0 0.0
2018-May-15 15:01S 27°22' E 153°11'0 0.0
2018-May-15 14:31S 27°22' E 153°11'0 0.0
2018-May-15 14:01S 27°22' E 153°11'0 0.0
2018-May-15 13:31S 27°22' E 153°11'0 0.0
2018-May-15 13:01S 27°22' E 153°11'0 0.0
2018-May-15 12:31S 27°22' E 153°11'0 0.0
2018-May-15 12:01S 27°22' E 153°11'0 0.0
2018-May-15 11:31S 27°22' E 153°11'0 0.0
2018-May-15 11:01S 27°22' E 153°11'0 0.0
2018-May-15 10:31S 27°22' E 153°11'0 0.0
2018-May-15 10:01S 27°22' E 153°11'0 0.0
2018-May-15 09:31S 27°22' E 153°11'0 0.0
2018-May-15 09:01S 27°22' E 153°11'0 0.0
2018-May-15 08:31S 27°22' E 153°11'0 0.0
2018-May-15 08:01S 27°22' E 153°11'0 0.0
2018-May-15 07:31S 27°22' E 153°11'0 0.0
2018-May-15 07:01S 27°22' E 153°11'0 0.1
2018-May-15 06:31S 27°22' E 153°11'0 0.1
2018-May-15 06:01S 27°22' E 153°11'0 0.0
2018-May-15 05:31S 27°22' E 153°11'0 0.0
2018-May-15 05:01S 27°22' E 153°11'0 0.1
2018-May-15 04:31S 27°22' E 153°11'0 0.1
2018-May-15 04:01S 27°22' E 153°11'0 0.0
2018-May-15 03:28S 27°22' E 153°11'0 0.0
2018-May-15 03:01S 27°22' E 153°11'0 0.0
2018-May-15 02:31S 27°22' E 153°11'0 0.0
2018-May-15 02:01S 27°22' E 153°11'0 0.0
2018-May-15 00:37S 27°22' E 153°11'0 0.1
2018-May-15 00:31S 27°22' E 153°11'0 0.0
2018-May-14 23:43S 27°22' E 153°11'0 0.0
2018-May-14 23:25S 27°22' E 153°11'0 0.0
2018-May-14 23:01S 27°22' E 153°11'0 0.0
2018-May-14 22:25S 27°22' E 153°11'0 0.0
2018-May-14 21:58S 27°22' E 153°11'0 0.0
2018-May-14 21:31S 27°22' E 153°11'0 0.0
2018-May-14 21:01S 27°22' E 153°11'0 0.2
2018-May-14 20:30S 27°22' E 153°11'4 7.6
2018-May-14 19:59S 27°18' E 153°13'714.3
2018-May-14 19:30S 27°15' E 153°19'916.4
2018-May-14 18:59S 27°06' E 153°19'714.6
2018-May-14 18:30S 27°00' E 153°15'715.1
2018-May-14 18:00S 26°54' E 153°11'611.3
2018-May-14 17:30S 26°48' E 153°12'611.7
2018-May-14 16:59S 26°42' E 153°11'4 8.2
2018-May-14 16:29S 26°39' E 153°14'1019.1
2018-May-14 15:59S 26°30' E 153°17'  
Track history (hours):
 
Tides and Currents Weather Stations Pressure Air Temp Water Temp Dewpoint Dewpoint Depression Visibility Wind Speed Wind Dir Waves Ship Positions

Maersk Lome

Last reported at 2018-May-21 13:18 UTC. Time now 2018-May-23 10:27 UTC.
Position S 38°15' E 144°55'.

Length 255 m; draft 12.3 m.

Type: Cargo ship. MMSI: 538005750.

Date/timePositionNaut miles runAvg speedWind from/ knotsBaromVisibWave heightAir tempDewpointWater temp
2018-May-21 13:18S 38°15' E 144°55'818.1
2018-May-21 12:51S 38°07' E 144°55'618.0
2018-May-21 12:30S 38°00' E 144°55'713.6
2018-May-21 12:00S 37°54' E 144°56'5 7.5
2018-May-21 11:24S 37°49' E 144°55'1 0.4
2018-May-21 10:08S 37°49' E 144°55'0 0.0
2018-May-21 08:44S 37°49' E 144°55'0 0.0
2018-May-20 17:59S 37°49' E 144°55'0 0.0
2018-May-20 17:30S 37°49' E 144°55'0 0.0
2018-May-20 16:56S 37°49' E 144°55'0 0.0
2018-May-20 16:17S 37°49' E 144°55'0 0.0
2018-May-20 15:59S 37°49' E 144°55'0 0.0
2018-May-20 15:30S 37°49' E 144°55'0 0.0
2018-May-20 05:18S 37°49' E 144°55'0 1.6
2018-May-20 05:00S 37°49' E 144°55'2 4.0
2018-May-20 04:29S 37°51' E 144°55'5 9.8
2018-May-20 04:00S 37°56' E 144°56'916.3
2018-May-20 03:26S 38°05' E 144°55'18411.3
2018-May-19 11:06S 38°24' E 148°48'717.2
2018-May-19 10:44S 38°21' E 148°55'417.6
2018-May-19 10:30S 38°18' E 148°59'1017.4
2018-May-19 09:54S 38°13' E 149°10'26316.5
2018-May-18 17:58S 34°11' E 151°19'816.4
2018-May-18 17:30S 34°04' E 151°19'812.7
2018-May-18 16:54S 33°59' E 151°12'1 2.0
2018-May-18 16:29S 33°58' E 151°13'0 0.0
2018-May-18 15:59S 33°58' E 151°13'0 0.0
2018-May-18 15:29S 33°58' E 151°13'0 0.0
2018-May-18 14:56S 33°58' E 151°13'0 0.0
2018-May-18 14:29S 33°58' E 151°13'0 0.0
2018-May-18 13:56S 33°58' E 151°13'0 0.0
2018-May-18 13:29S 33°58' E 151°13'0 0.0
2018-May-18 12:44S 33°58' E 151°13'0 0.0
2018-May-17 20:30S 33°58' E 151°13'0 0.0
2018-May-17 20:00S 33°58' E 151°13'0 0.0
2018-May-17 19:30S 33°58' E 151°13'0 0.0
2018-May-17 18:54S 33°58' E 151°13'0 0.0
2018-May-17 18:24S 33°58' E 151°13'0 0.0
2018-May-17 18:00S 33°58' E 151°13'0 0.0
2018-May-17 17:27S 33°58' E 151°13'0 0.0
2018-May-17 16:54S 33°58' E 151°13'0 0.0
2018-May-17 16:30S 33°58' E 151°13'0 0.0
2018-May-17 16:00S 33°58' E 151°13'0 0.0
2018-May-17 15:30S 33°58' E 151°13'0 0.0
2018-May-17 14:30S 33°58' E 151°13'0 0.0
2018-May-17 14:00S 33°58' E 151°13'0 0.0
2018-May-17 07:54S 33°58' E 151°13'1 0.2
2018-May-17 02:00S 33°59' E 151°13'5 9.8
2018-May-17 01:30S 34°01' E 151°18'4 7.3
2018-May-17 01:00S 33°59' E 151°22'4 8.3
2018-May-17 00:30S 33°56' E 151°25'5 9.4
2018-May-17 00:00S 33°52' E 151°29'611.8
2018-May-16 23:30S 33°47' E 151°33'917.2
2018-May-16 23:00S 33°40' E 151°39'917.0
2018-May-16 22:30S 33°33' E 151°45'2717.3
2018-May-16 20:58S 33°13' E 152°05'818.3
2018-May-16 20:30S 33°06' E 152°11'918.5
2018-May-16 20:00S 32°59' E 152°18'917.8
2018-May-16 19:30S 32°52' E 152°24'816.5
2018-May-16 19:00S 32°45' E 152°30'816.8
2018-May-16 18:30S 32°38' E 152°36'917.3
2018-May-16 18:00S 32°30' E 152°41'27217.6
2018-May-16 02:33S 28°05' E 153°47'116.8
2018-May-16 02:29S 28°04' E 153°47'816.6
2018-May-16 01:59S 27°56' E 153°46'816.7
2018-May-16 01:30S 27°48' E 153°46'816.7
2018-May-16 01:00S 27°39' E 153°45'816.5
2018-May-16 00:30S 27°31' E 153°45'2416.0
2018-May-15 23:02S 27°07' E 153°41'215.9
2018-May-15 22:54S 27°06' E 153°41'815.7
2018-May-15 22:24S 26°58' E 153°39'1515.8
2018-May-15 21:27S 26°49' E 153°25'816.9
2018-May-15 20:59S 26°45' E 153°18'610.4
2018-May-15 20:26S 26°43' E 153°12'613.1
2018-May-15 19:59S 26°49' E 153°11'612.6
2018-May-15 19:31S 26°55' E 153°11'816.4
2018-May-15 19:01S 27°02' E 153°15'815.8
2018-May-15 18:30S 27°08' E 153°21'815.9
2018-May-15 18:00S 27°15' E 153°17'714.9
2018-May-15 17:31S 27°20' E 153°11'2 3.4
2018-May-15 17:01S 27°22' E 153°11'0 0.0
2018-May-15 16:31S 27°22' E 153°11'0 0.0
2018-May-15 15:58S 27°22' E 153°11'0 0.0
2018-May-15 15:31S 27°22' E 153°11'0 0.0
2018-May-15 15:01S 27°22' E 153°11'0 0.0
2018-May-15 14:31S 27°22' E 153°11'0 0.0
2018-May-15 14:01S 27°22' E 153°11'0 0.0
2018-May-15 13:31S 27°22' E 153°11'0 0.0
2018-May-15 13:01S 27°22' E 153°11'0 0.0
2018-May-15 12:31S 27°22' E 153°11'0 0.0
2018-May-15 12:01S 27°22' E 153°11'0 0.0
2018-May-15 11:31S 27°22' E 153°11'0 0.0
2018-May-15 11:01S 27°22' E 153°11'0 0.0
2018-May-15 10:31S 27°22' E 153°11'0 0.0
2018-May-15 10:01S 27°22' E 153°11'0 0.0
2018-May-15 09:31S 27°22' E 153°11'0 0.0
2018-May-15 09:01S 27°22' E 153°11'0 0.0
2018-May-15 08:31S 27°22' E 153°11'0 0.0
2018-May-15 08:01S 27°22' E 153°11'0 0.0
2018-May-15 07:31S 27°22' E 153°11'0 0.0
2018-May-15 07:01S 27°22' E 153°11'0 0.1
2018-May-15 06:31S 27°22' E 153°11'0 0.1
2018-May-15 06:01S 27°22' E 153°11'0 0.0
2018-May-15 05:31S 27°22' E 153°11'0 0.0
2018-May-15 05:01S 27°22' E 153°11'0 0.1
2018-May-15 04:31S 27°22' E 153°11'0 0.1
2018-May-15 04:01S 27°22' E 153°11'0 0.0
2018-May-15 03:28S 27°22' E 153°11'0 0.0
2018-May-15 03:01S 27°22' E 153°11'0 0.0
2018-May-15 02:31S 27°22' E 153°11'0 0.0
2018-May-15 02:01S 27°22' E 153°11'0 0.0
2018-May-15 00:37S 27°22' E 153°11'0 0.1
2018-May-15 00:31S 27°22' E 153°11'0 0.0
2018-May-14 23:43S 27°22' E 153°11'0 0.0
2018-May-14 23:25S 27°22' E 153°11'0 0.0
2018-May-14 23:01S 27°22' E 153°11'0 0.0
2018-May-14 22:25S 27°22' E 153°11'0 0.0
2018-May-14 21:58S 27°22' E 153°11'0 0.0
2018-May-14 21:31S 27°22' E 153°11'0 0.0
2018-May-14 21:01S 27°22' E 153°11'0 0.2
2018-May-14 20:30S 27°22' E 153°11'4 7.6
2018-May-14 19:59S 27°18' E 153°13'714.3
2018-May-14 19:30S 27°15' E 153°19'916.4
2018-May-14 18:59S 27°06' E 153°19'714.6
2018-May-14 18:30S 27°00' E 153°15'715.1
2018-May-14 18:00S 26°54' E 153°11'611.3
2018-May-14 17:30S 26°48' E 153°12'611.7
2018-May-14 16:59S 26°42' E 153°11'4 8.2
2018-May-14 16:29S 26°39' E 153°14'1019.1
2018-May-14 15:59S 26°30' E 153°17'  

Dump ship's entire track history